Time;durP1;ratioP1;P1;durP2;ratioP2;P2;SDS_P1;SDS_P2;PMS_P1;PMS_P2;Temp;Humidity;BMP_temperature;BMP_pressure;BME280_temperature;BME280_humidity;BME280_pressure;Samples;Min_cycle;Max_cycle;Signal;HPM_P1;HPM_P2
2021/08/19 00:01:56;;;;;;;4.63;4.32;;;;;;;29.22;63.96;100805.56;5057747;28;65605;-41
2021/08/19 00:04:26;;;;;;;12.88;4.50;;;;;;;29.18;64.28;100797.06;5057808;28;70382;-42
2021/08/19 00:06:56;;;;;;;6.45;6.05;;;;;;;29.24;64.78;100819.69;5051316;28;65942;-41
2021/08/19 00:09:27;;;;;;;6.60;6.20;;;;;;;29.26;64.76;100820.31;5054937;28;69677;-41
2021/08/19 00:11:59;;;;;;;8.43;5.90;;;;;;;29.26;64.18;100812.22;5056255;28;66883;-41
2021/08/19 00:14:30;;;;;;;6.97;6.57;;;;;;;29.31;64.10;100828.63;5056621;28;69857;-41
2021/08/19 00:17:01;;;;;;;7.10;6.50;;;;;;;29.35;64.32;100835.25;5057714;28;66278;-42
2021/08/19 00:19:31;;;;;;;6.55;6.05;;;;;;;29.39;64.23;100831.09;5054875;28;70565;-41
2021/08/19 00:22:02;;;;;;;6.22;5.88;;;;;;;29.43;64.43;100842.31;5056265;28;67620;-41
2021/08/19 00:24:34;;;;;;;7.57;7.07;;;;;;;29.45;64.43;100839.38;5052674;28;70820;-40
2021/08/19 00:27:04;;;;;;;8.27;7.45;;;;;;;29.48;64.66;100849.78;5057927;28;67008;-40
2021/08/19 00:29:35;;;;;;;8.10;7.50;;;;;;;29.50;64.59;100853.91;5045450;28;69797;-41
2021/08/19 00:32:06;;;;;;;8.73;8.02;;;;;;;29.39;64.65;100838.34;5050231;28;66541;-41
2021/08/19 00:34:37;;;;;;;9.82;8.77;;;;;;;29.56;65.52;100863.06;5060889;27;69145;-41
2021/08/19 00:37:08;;;;;;;12.05;9.48;;;;;;;29.60;64.72;100875.13;5062058;28;65890;-42
2021/08/19 00:39:39;;;;;;;10.10;9.10;;;;;;;29.57;65.58;100870.13;5067167;27;70264;-42
2021/08/19 00:42:12;;;;;;;12.48;9.23;;;;;;;29.62;65.04;100875.75;5061636;27;67202;-42
2021/08/19 00:44:49;;;;;;;16.00;9.02;;;;;;;29.62;66.01;100871.16;5058693;28;70327;-42
2021/08/19 00:47:43;;;;;;;11.90;8.90;;;;;;;29.64;65.84;100881.78;5062641;28;66492;-43
2021/08/19 00:51:01;;;;;;;10.60;8.25;;;;;;;29.66;65.66;100879.69;5061589;27;70101;-40
2021/08/19 00:53:32;;;;;;;9.55;8.82;;;;;;;29.70;65.33;100891.78;5063478;28;66103;-42
2021/08/19 00:56:02;;;;;;;10.25;8.10;;;;;;;29.70;65.80;100891.78;5064127;28;69354;-41
2021/08/19 00:58:35;;;;;;;9.45;8.60;;;;;;;29.60;65.76;100867.84;5040671;28;66273;-42
2021/08/19 01:01:06;;;;;;;13.50;8.40;;;;;;;29.74;65.64;100901.09;5063026;28;70336;-41
2021/08/19 01:03:39;;;;;;;9.10;8.25;;;;;;;29.67;65.82;100886.78;5051429;28;67676;-42
2021/08/19 01:06:10;;;;;;;8.45;7.65;;;;;;;29.78;65.98;100905.06;5057331;28;69950;-42
2021/08/19 01:08:40;;;;;;;8.95;7.93;;;;;;;29.80;65.49;100899.41;5058436;28;66533;-42
2021/08/19 01:11:15;;;;;;;8.90;8.30;;;;;;;29.81;65.80;100910.03;5056758;28;70674;-42
2021/08/19 01:13:48;;;;;;;9.52;8.73;;;;;;;29.83;65.23;100918.75;5061448;28;65636;-42
2021/08/19 01:16:36;;;;;;;11.23;7.72;;;;;;;29.84;65.38;100914.19;5061132;28;71845;-42
2021/08/19 01:19:07;;;;;;;10.00;7.65;;;;;;;29.75;65.20;100889.22;5059623;28;66808;-42
2021/08/19 01:21:39;;;;;;;8.52;6.88;;;;;;;29.91;64.74;100903.34;5058682;28;70362;-42
2021/08/19 01:24:14;;;;;;;8.15;7.45;;;;;;;29.90;64.95;100907.09;5059771;28;65300;-41
2021/08/19 01:26:55;;;;;;;7.38;6.68;;;;;;;29.92;65.25;100915.81;5052315;28;70200;-42
2021/08/19 01:29:26;;;;;;;7.93;7.22;;;;;;;29.92;64.88;100913.09;5053313;28;66333;-42
2021/08/19 01:32:03;;;;;;;7.25;6.65;;;;;;;29.93;64.75;100901.25;5061089;28;70479;-42
2021/08/19 01:34:34;;;;;;;7.20;6.72;;;;;;;29.95;64.23;100909.97;5056741;28;67341;-42
2021/08/19 01:37:06;;;;;;;6.82;6.28;;;;;;;29.99;65.29;100919.34;5057315;28;70659;-42
2021/08/19 01:39:39;;;;;;;10.52;6.85;;;;;;;30.03;66.16;100920.56;5039049;28;66346;-41
2021/08/19 01:42:10;;;;;;;12.23;10.38;;;;;;;30.06;65.77;100923.69;5058998;28;71180;-42
2021/08/19 01:44:56;;;;;;;13.35;10.48;;;;;;;30.11;66.27;100927.63;5066236;28;66085;-42
2021/08/19 01:47:30;;;;;;;11.27;10.45;;;;;;;29.96;66.29;100898.13;5054371;28;70364;-42
2021/08/19 01:50:01;;;;;;;10.50;9.45;;;;;;;30.11;66.15;100919.50;5059459;28;65203;-42
2021/08/19 01:52:33;;;;;;;11.32;10.38;;;;;;;30.17;65.85;100924.03;5056877;28;69984;-44
2021/08/19 01:55:19;;;;;;;11.73;11.00;;;;;;;30.13;64.82;100923.66;5058217;28;66188;-42
2021/08/19 01:57:56;;;;;;;11.93;11.27;;;;;;;30.16;65.09;100923.22;5055267;28;69795;-43
2021/08/19 02:00:27;;;;;;;12.75;11.82;;;;;;;30.17;64.78;100924.91;5058243;28;66727;-43
2021/08/19 02:03:01;;;;;;;13.93;13.02;;;;;;;30.07;64.41;100908.28;5053213;28;70072;-43
2021/08/19 02:05:40;;;;;;;15.23;12.60;;;;;;;30.26;65.01;100928.22;5054826;28;65153;-43
2021/08/19 02:08:12;;;;;;;13.32;12.18;;;;;;;30.27;64.28;100933.41;5056338;28;70051;-43
2021/08/19 02:10:45;;;;;;;12.40;11.80;;;;;;;30.31;64.24;100941.09;5055210;28;67445;-43
2021/08/19 02:13:17;;;;;;;13.30;12.40;;;;;;;30.33;64.74;100933.59;5052212;28;70636;-42
2021/08/19 02:15:49;;;;;;;12.95;11.77;;;;;;;30.38;64.48;100933.78;5020128;28;65975;-41
2021/08/19 02:18:20;;;;;;;13.85;12.48;;;;;;;30.38;65.16;100925.66;5054291;28;69511;-42
2021/08/19 02:20:52;;;;;;;24.17;10.35;;;;;;;30.42;66.18;100943.13;5047030;28;65730;-42
2021/08/19 02:23:23;;;;;;;12.20;10.00;;;;;;;30.44;65.73;100939.16;5049623;28;69976;-42
2021/08/19 02:25:55;;;;;;;10.35;9.23;;;;;;;30.46;66.10;100937.06;5053915;28;66112;-43
2021/08/19 02:28:26;;;;;;;10.20;9.35;;;;;;;30.49;66.03;100933.09;5054907;28;69180;-42
2021/08/19 02:31:43;;;;;;;10.05;9.07;;;;;;;30.54;66.43;100937.88;5048404;28;65618;-43
2021/08/19 02:34:15;;;;;;;9.70;8.80;;;;;;;30.63;65.86;100934.69;5050119;28;70295;-42
2021/08/19 02:36:48;;;;;;;9.23;8.43;;;;;;;30.71;65.72;100937.13;5050293;28;66567;-43
2021/08/19 02:39:19;;;;;;;11.27;8.38;;;;;;;30.73;66.19;100936.94;5048898;28;70375;-44
2021/08/19 02:41:51;;;;;;;10.13;7.70;;;;;;;30.76;66.17;100932.91;5048871;28;66633;-42
2021/08/19 02:44:22;;;;;;;8.77;8.27;;;;;;;30.78;66.15;100931.66;5050833;28;70397;-43
2021/08/19 02:46:54;;;;;;;8.07;7.47;;;;;;;30.85;65.69;100931.66;5052051;28;66027;-43
2021/08/19 02:49:26;;;;;;;8.05;7.45;;;;;;;30.89;65.65;100927.44;5047131;28;69984;-43
2021/08/19 02:52:07;;;;;;;7.78;6.82;;;;;;;30.93;65.57;100923.28;5051709;27;65795;-43
2021/08/19 02:54:52;;;;;;;7.82;7.32;;;;;;;30.96;65.87;100930.13;5051124;27;70126;-43
2021/08/19 02:57:40;;;;;;;7.50;6.97;;;;;;;31.00;65.54;100920.50;5053531;27;66231;-44
2021/08/19 03:00:15;;;;;;;9.13;6.20;;;;;;;31.03;65.39;100918.16;5052314;28;70160;-43
2021/08/19 03:02:46;;;;;;;5.90;5.60;;;;;;;31.04;65.26;100914.44;5046524;28;65545;-42
2021/08/19 03:05:19;;;;;;;5.90;5.50;;;;;;;31.09;65.02;100903.75;5050529;28;70429;-41
2021/08/19 03:07:50;;;;;;;6.07;5.57;;;;;;;31.09;64.54;100906.47;5049575;28;66718;-44
2021/08/19 03:10:21;;;;;;;6.38;5.53;;;;;;;31.14;64.33;100903.09;5067572;27;69710;-42
2021/08/19 03:12:53;;;;;;;7.25;5.80;;;;;;;31.19;64.20;100902.44;5044919;28;64817;-45
2021/08/19 03:15:25;;;;;;;5.50;5.20;;;;;;;31.22;63.55;100904.69;5012482;28;70340;-44
2021/08/19 03:17:57;;;;;;;;;;;;;;;30.97;64.49;100899.28;5049487;28;65776;-42
2021/08/19 03:20:29;;;;;;;;;;;;;;;30.91;64.24;100898.28;5035371;28;70416;-41
2021/08/19 03:23:01;;;;;;;4.97;4.68;;;;;;;31.19;63.26;100891.59;5059643;28;67248;-41
2021/08/19 03:25:33;;;;;;;5.22;4.82;;;;;;;31.25;62.91;100896.13;5054252;28;70473;-41
2021/08/19 03:28:07;;;;;;;4.68;4.32;;;;;;;31.25;63.13;100882.56;5048421;28;65382;-44
2021/08/19 03:30:39;;;;;;;4.97;4.53;;;;;;;31.27;62.53;100883.19;5021460;28;70752;-42
2021/08/19 03:33:11;;;;;;;4.57;4.38;;;;;;;31.30;62.13;100880.03;5049609;28;66597;-42
2021/08/19 03:35:42;;;;;;;4.57;4.28;;;;;;;31.31;62.12;100878.97;5052998;28;70008;-44
2021/08/19 03:38:14;;;;;;;4.55;4.30;;;;;;;31.30;61.95;100869.19;5051193;28;66885;-42
2021/08/19 03:40:46;;;;;;;4.35;4.07;;;;;;;31.30;62.23;100859.16;5051004;28;69253;-43
2021/08/19 03:43:18;;;;;;;4.57;4.20;;;;;;;31.37;61.82;100865.38;5049500;28;66476;-42
2021/08/19 03:45:53;;;;;;;7.22;4.38;;;;;;;31.44;61.30;100854.47;5048541;28;70172;-42
2021/08/19 03:48:25;;;;;;;4.13;3.83;;;;;;;31.46;61.23;100855.06;5038333;28;65396;-42
2021/08/19 03:50:57;;;;;;;3.55;3.35;;;;;;;31.45;61.13;100844.44;5047263;28;69500;-42
2021/08/19 03:53:31;;;;;;;4.20;3.80;;;;;;;31.49;61.22;100849.19;5050889;28;66651;-44
2021/08/19 03:56:06;;;;;;;4.78;4.47;;;;;;;31.52;61.32;100851.47;5032444;28;70151;-43
2021/08/19 03:58:38;;;;;;;4.63;4.32;;;;;;;31.55;60.77;100842.03;5052350;28;66258;-43
2021/08/19 04:01:09;;;;;;;4.22;4.00;;;;;;;31.54;60.69;100848.53;5048553;28;70102;-43
2021/08/19 04:03:41;;;;;;;4.43;4.15;;;;;;;31.53;60.47;100844.16;5041514;28;66968;-42
2021/08/19 04:06:12;;;;;;;4.15;3.95;;;;;;;31.54;60.45;100848.53;5044642;28;69914;-42
2021/08/19 04:08:44;;;;;;;;;;;;;;;31.34;60.66;100854.09;5030662;28;66165;-41
2021/08/19 04:11:15;;;;;;;7.53;4.10;;;;;;;31.61;60.54;100847.38;5048007;28;70069;-42
2021/08/19 04:13:46;;;;;;;6.50;4.13;;;;;;;31.59;60.35;100846.81;5053644;28;66254;-43
2021/08/19 04:16:18;;;;;;;4.78;4.38;;;;;;;31.64;60.14;100848.00;5051569;28;70596;-41
2021/08/19 04:18:49;;;;;;;;;;;;;;;31.38;60.20;100850.78;5048231;28;65765;-41
2021/08/19 04:21:23;;;;;;;5.65;4.15;;;;;;;31.63;60.09;100847.16;5049950;28;70826;-42
2021/08/19 04:23:54;;;;;;;4.20;3.90;;;;;;;31.67;60.07;100842.94;5051265;28;65522;-42
2021/08/19 04:26:27;;;;;;;6.87;3.67;;;;;;;31.68;59.86;100841.03;5056252;28;70570;-43
2021/08/19 04:28:58;;;;;;;6.38;3.85;;;;;;;31.65;59.43;100825.22;5052677;28;65514;-41
2021/08/19 04:31:30;;;;;;;5.27;4.07;;;;;;;31.74;59.92;100826.59;5054132;28;70627;-42
2021/08/19 04:34:11;;;;;;;4.95;4.47;;;;;;;31.75;59.60;100820.13;5018089;28;66183;-41
2021/08/19 04:36:42;;;;;;;4.37;4.00;;;;;;;31.80;59.76;100812.13;5046785;28;70160;-41
2021/08/19 04:39:14;;;;;;;5.82;4.38;;;;;;;31.81;59.39;100805.63;5052631;28;66280;-44
2021/08/19 04:41:45;;;;;;;4.40;4.00;;;;;;;31.83;59.55;100798.09;5047066;28;69789;-43
2021/08/19 04:44:17;;;;;;;4.97;4.60;;;;;;;31.87;59.13;100804.72;5047931;28;65568;-43
2021/08/19 04:46:51;;;;;;;5.03;4.68;;;;;;;31.94;59.29;100805.50;5050006;28;69044;-47
2021/08/19 04:49:22;;;;;;;5.63;5.10;;;;;;;31.95;58.79;100793.56;5051781;28;66296;-41
2021/08/19 04:51:53;;;;;;;12.00;4.67;;;;;;;31.97;59.09;100783.31;5052958;28;69963;-42
2021/08/19 04:54:25;;;;;;;10.98;4.20;;;;;;;32.03;59.68;100782.41;5048858;28;65814;-45
2021/08/19 04:56:56;;;;;;;6.70;4.07;;;;;;;32.02;59.52;100769.09;5054418;28;69906;-46
2021/08/19 04:59:28;;;;;;;5.97;2.97;;;;;;;31.97;57.81;100763.50;5051890;28;66268;-45
2021/08/19 05:02:01;;;;;;;3.60;3.38;;;;;;;31.91;57.09;100761.69;5049060;28;70223;-43
2021/08/19 05:04:32;;;;;;;7.53;3.53;;;;;;;31.86;56.40;100762.38;5034333;28;66174;-43
2021/08/19 05:07:04;;;;;;;6.03;3.30;;;;;;;31.77;55.71;100755.63;5044589;28;70934;-43
2021/08/19 05:09:44;;;;;;;3.53;3.25;;;;;;;31.73;55.62;100754.41;5053858;28;66438;-42
2021/08/19 05:12:19;;;;;;;2.90;2.70;;;;;;;31.57;54.61;100735.03;5069277;27;70177;-43
2021/08/19 05:14:50;;;;;;;5.20;2.67;;;;;;;31.56;54.04;100733.34;5048974;28;65931;-42
2021/08/19 05:17:23;;;;;;;1.67;1.58;;;;;;;31.51;53.35;100725.09;5044354;28;70096;-43
2021/08/19 05:19:54;;;;;;;3.63;2.10;;;;;;;31.45;52.53;100715.16;5033303;28;66210;-42
2021/08/19 05:22:26;;;;;;;2.03;1.42;;;;;;;31.42;52.23;100718.31;5049786;28;70235;-43
2021/08/19 05:25:01;;;;;;;8.25;2.30;;;;;;;31.37;51.94;100713.59;5039832;28;66269;-42
2021/08/19 05:27:50;;;;;;;;;;;;;;;;;;;;;
2021/08/19 05:30:30;;;;;;;10.43;2.15;;;;;;;31.33;50.79;100695.25;5038304;28;65942;-41
2021/08/19 05:33:02;;;;;;;5.55;1.42;;;;;;;31.25;51.74;100693.69;5052974;28;69461;-44
2021/08/19 05:35:34;;;;;;;13.15;2.03;;;;;;;31.20;52.16;100680.00;5049123;28;66318;-43
2021/08/19 05:38:05;;;;;;;2.63;1.95;;;;;;;31.18;51.34;100682.13;5054732;28;70400;-41
2021/08/19 05:40:37;;;;;;;6.97;1.15;;;;;;;31.16;51.70;100674.22;5052697;28;66034;-44
2021/08/19 05:43:08;;;;;;;5.38;1.42;;;;;;;31.14;50.73;100676.31;5049166;28;69675;-44
2021/08/19 05:45:46;;;;;;;5.63;1.23;;;;;;;31.10;50.48;100668.88;5049118;28;66117;-43
2021/08/19 05:48:19;;;;;;;5.20;1.05;;;;;;;31.10;50.47;100663.47;5047044;28;70224;-43
2021/08/19 05:50:52;;;;;;;2.53;0.95;;;;;;;31.04;49.16;100648.94;5048935;28;66575;-44
2021/08/19 05:53:24;;;;;;;4.47;1.00;;;;;;;31.05;49.18;100650.59;5050547;28;69566;-44
2021/08/19 05:55:56;;;;;;;1.50;0.90;;;;;;;31.02;49.02;100645.63;5049367;28;67150;-43
2021/08/19 05:58:27;;;;;;;0.88;0.70;;;;;;;31.03;48.65;100647.28;5051104;28;69871;-43
2021/08/19 06:01:00;;;;;;;1.50;0.70;;;;;;;31.02;48.42;100639.38;5051987;28;66160;-43
2021/08/19 06:03:32;;;;;;;2.35;0.70;;;;;;;31.07;47.80;100637.66;5034472;28;70558;-43
2021/08/19 06:06:10;;;;;;;1.92;0.80;;;;;;;31.08;47.31;100633.88;5050821;28;66373;-44
2021/08/19 06:08:43;;;;;;;1.55;0.52;;;;;;;31.09;46.76;100627.41;5048371;28;69992;-43
2021/08/19 06:11:15;;;;;;;1.35;0.60;;;;;;;31.04;46.23;100624.56;5051201;28;65974;-43
2021/08/19 06:13:48;;;;;;;2.78;0.70;;;;;;;31.06;46.37;100625.13;5034145;28;70083;-43
2021/08/19 06:16:19;;;;;;;5.70;0.57;;;;;;;31.02;46.12;100599.56;5038406;28;67303;-43
2021/08/19 06:18:51;;;;;;;1.40;0.50;;;;;;;31.05;45.80;100603.72;5055628;28;70088;-43
2021/08/19 06:21:35;;;;;;;1.33;0.73;;;;;;;31.04;45.50;100602.88;5043181;28;66293;-43
2021/08/19 06:24:07;;;;;;;2.13;0.77;;;;;;;31.06;45.64;100603.47;5052702;27;69969;-43
2021/08/19 06:26:42;;;;;;;0.82;0.60;;;;;;;31.04;44.90;100594.75;5052134;28;66643;-43
2021/08/19 06:29:13;;;;;;;;;;;;;;;30.74;44.25;100594.69;5018246;28;70094;-43
2021/08/19 06:31:45;;;;;;;1.10;0.55;;;;;;;30.98;44.69;100590.25;5050345;28;66393;-43
2021/08/19 06:34:17;;;;;;;2.95;0.60;;;;;;;30.95;44.44;100577.16;5037645;28;70345;-43
2021/08/19 06:36:50;;;;;;;0.80;0.60;;;;;;;31.03;44.31;100581.44;5054602;28;65623;-43
2021/08/19 06:39:23;;;;;;;0.82;0.47;;;;;;;31.06;44.23;100570.94;5038232;28;69348;-43
2021/08/19 06:41:58;;;;;;;1.42;0.50;;;;;;;31.05;44.14;100566.59;5033652;28;66577;-44
2021/08/19 06:44:31;;;;;;;0.82;0.50;;;;;;;31.03;44.13;100554.34;5054539;28;71419;-44
2021/08/19 06:47:04;;;;;;;0.75;0.50;;;;;;;31.08;43.93;100558.03;5054935;27;66486;-43
2021/08/19 06:49:36;;;;;;;0.73;0.52;;;;;;;31.12;44.25;100550.25;5034230;28;69033;-44
2021/08/19 06:52:08;;;;;;;2.72;0.70;;;;;;;31.14;43.91;100562.50;5031804;28;65635;-43
2021/08/19 06:54:40;;;;;;;;;;;;;;;30.92;43.08;100556.78;5052585;28;69563;-43
2021/08/19 06:57:13;;;;;;;1.27;0.50;;;;;;;31.19;43.01;100547.47;5048918;28;66800;-43
2021/08/19 06:59:46;;;;;;;0.80;0.50;;;;;;;31.27;43.37;100541.72;5051473;28;69504;-42
2021/08/19 07:02:17;;;;;;;0.40;0.40;;;;;;;31.28;43.79;100543.34;5051420;28;65959;-42
2021/08/19 07:04:49;;;;;;;;;;;;;;;31.03;42.39;100549.75;5049178;28;69341;-43
2021/08/19 07:07:20;;;;;;;2.30;0.60;;;;;;;31.33;43.04;100538.06;5049994;28;66488;-44
2021/08/19 07:09:57;;;;;;;1.05;0.50;;;;;;;31.34;43.21;100529.72;5050576;28;69779;-43
2021/08/19 07:12:29;;;;;;;0.65;0.57;;;;;;;31.41;42.83;100535.06;5028417;28;64982;-42
2021/08/19 07:15:01;;;;;;;1.63;0.50;;;;;;;31.44;42.52;100531.06;5051531;28;70196;-41
2021/08/19 07:17:32;;;;;;;1.50;0.50;;;;;;;31.43;42.05;100521.28;5050635;28;66561;-42
2021/08/19 07:20:05;;;;;;;2.08;0.50;;;;;;;31.31;42.32;100496.81;5059805;28;69433;-43
2021/08/19 07:22:36;;;;;;;4.00;0.57;;;;;;;31.50;42.21;100516.56;5056262;28;66586;-43
2021/08/19 07:25:09;;;;;;;0.85;0.50;;;;;;;31.48;42.39;100510.56;5056669;28;69179;-43
2021/08/19 07:27:42;;;;;;;0.57;0.50;;;;;;;31.47;42.16;100507.03;5056121;28;66661;-43
2021/08/19 07:30:14;;;;;;;5.75;0.88;;;;;;;31.47;42.18;100507.03;5054794;28;69585;-44
2021/08/19 07:32:45;;;;;;;1.83;0.50;;;;;;;31.47;41.65;100501.59;5058812;28;65848;-43
2021/08/19 07:35:21;;;;;;;3.75;0.55;;;;;;;31.50;41.57;100503.84;5051882;28;69642;-43
2021/08/19 07:37:57;;;;;;;2.05;0.45;;;;;;;31.41;41.71;100480.84;5056876;28;67117;-42
2021/08/19 07:40:33;;;;;;;1.38;0.60;;;;;;;31.31;41.50;100448.88;5056014;28;69103;-42
2021/08/19 07:43:05;;;;;;;1.17;0.50;;;;;;;31.59;41.63;100493.47;5054256;28;65868;-43
2021/08/19 07:45:37;;;;;;;2.15;0.50;;;;;;;31.60;41.33;100490.53;5052777;28;69554;-44
2021/08/19 07:48:09;;;;;;;;;;;;;;;31.33;41.05;100473.03;5063414;28;65550;-43
2021/08/19 07:50:42;;;;;;;1.88;0.50;;;;;;;31.46;41.52;100453.88;5058728;28;70338;-42
2021/08/19 07:53:15;;;;;;;0.85;0.60;;;;;;;31.65;41.21;100480.88;5054850;27;66872;-44
2021/08/19 07:55:47;;;;;;;2.90;0.70;;;;;;;31.64;40.99;100469.19;5051391;28;68211;-45
2021/08/19 07:58:22;;;;;;;2.60;0.50;;;;;;;31.68;40.97;100470.41;5055559;28;67116;-44
2021/08/19 08:00:56;;;;;;;0.68;0.50;;;;;;;31.73;40.69;100467.81;5034002;28;70388;-43
2021/08/19 08:03:31;;;;;;;1.65;0.50;;;;;;;31.78;40.92;100467.06;5054137;28;65834;-44
2021/08/19 08:06:03;;;;;;;;;;;;;;;31.52;40.46;100461.06;5055130;28;69863;-41
2021/08/19 08:08:34;;;;;;;0.80;0.50;;;;;;;31.72;40.96;100465.31;5039125;28;65530;-43
2021/08/19 08:11:07;;;;;;;0.50;0.45;;;;;;;31.77;40.66;100462.72;5054292;28;69896;-43
2021/08/19 08:13:39;;;;;;;4.18;0.50;;;;;;;31.81;40.60;100453.03;5056487;28;64679;-44
2021/08/19 08:16:13;;;;;;;1.63;0.50;;;;;;;31.80;40.20;100452.22;5052593;28;71065;-43
2021/08/19 08:18:47;;;;;;;1.65;0.52;;;;;;;31.82;40.14;100443.88;5037068;28;66930;-42
2021/08/19 08:21:19;;;;;;;3.13;0.40;;;;;;;31.82;40.70;100443.88;5037263;28;70113;-44
2021/08/19 08:23:55;;;;;;;0.70;0.60;;;;;;;31.86;40.63;100447.75;5059179;28;65405;-43
2021/08/19 08:26:26;;;;;;;0.98;0.60;;;;;;;31.89;40.45;100436.41;5054486;28;70429;-42
2021/08/19 08:28:59;;;;;;;1.35;0.70;;;;;;;31.93;40.80;100445.78;5057673;28;66632;-43
2021/08/19 08:31:35;;;;;;;1.83;0.50;;;;;;;31.95;41.00;100446.34;5054244;27;69647;-44
2021/08/19 08:34:09;;;;;;;0.63;0.45;;;;;;;31.98;40.35;100453.16;5047582;28;65259;-43
2021/08/19 08:36:45;;;;;;;1.42;0.50;;;;;;;31.99;40.45;100450.25;5030314;28;70044;-43
2021/08/19 08:39:26;;;;;;;0.77;0.50;;;;;;;32.03;42.10;100448.69;5049644;27;66257;-43
2021/08/19 08:41:58;;;;;;;2.67;0.70;;;;;;;32.07;41.74;100445.50;5048870;28;70480;-43
2021/08/19 08:44:33;;;;;;;4.10;0.80;;;;;;;32.05;41.54;100435.72;5031694;28;66065;-43
2021/08/19 08:47:08;;;;;;;3.47;0.70;;;;;;;32.13;41.15;100439.13;5029984;28;70043;-45
2021/08/19 08:49:41;;;;;;;3.47;0.60;;;;;;;32.18;41.07;100436.50;5024615;28;66071;-45
2021/08/19 08:52:12;;;;;;;3.17;0.70;;;;;;;32.20;40.87;100445.22;5051185;28;69354;-44
2021/08/19 08:54:45;;;;;;;1.00;0.40;;;;;;;32.25;40.67;100437.19;5052802;28;66262;-45
2021/08/19 08:57:20;;;;;;;0.40;0.40;;;;;;;32.27;39.94;100429.66;5044314;27;69361;-44
2021/08/19 08:59:51;;;;;;;3.08;0.40;;;;;;;32.22;40.32;100434.97;5054027;28;66226;-42
2021/08/19 09:02:27;;;;;;;3.83;0.40;;;;;;;32.22;39.78;100427.66;5054510;28;68971;-42
2021/08/19 09:05:24;;;;;;;2.35;0.60;;;;;;;32.18;40.85;100431.06;5060625;27;65786;-44
2021/08/19 09:07:58;;;;;;;0.77;0.50;;;;;;;32.25;41.31;100415.50;5057148;28;70505;-45
2021/08/19 09:10:34;;;;;;;0.95;0.73;;;;;;;32.24;40.35;100420.09;5056241;28;65616;-43
2021/08/19 09:13:24;;;;;;;1.38;0.60;;;;;;;32.01;40.13;100376.72;5058744;28;69970;-43
2021/08/19 09:16:18;;;;;;;2.45;0.85;;;;;;;32.28;43.50;100415.00;5056884;28;65266;-42
2021/08/19 09:18:50;;;;;;;4.43;1.38;;;;;;;32.47;46.12;100408.34;5055708;28;69968;-42
2021/08/19 09:21:25;;;;;;;6.93;1.63;;;;;;;32.56;47.57;100402.53;5056356;28;66607;-42
2021/08/19 09:24:14;;;;;;;4.00;1.73;;;;;;;32.63;49.14;100405.94;5057077;28;71093;-42
2021/08/19 09:26:48;;;;;;;3.35;1.77;;;;;;;32.74;49.14;100396.91;5063166;27;65645;-43
2021/08/19 09:29:28;;;;;;;2.60;1.67;;;;;;;32.94;49.92;100413.53;5040146;28;70091;-42
2021/08/19 09:32:11;;;;;;;3.35;1.85;;;;;;;32.94;50.46;100393.72;5044910;28;65115;-42
2021/08/19 09:34:46;;;;;;;8.73;1.80;;;;;;;33.17;50.20;100411.78;5057230;28;69281;-43
2021/08/19 09:37:20;;;;;;;2.35;1.42;;;;;;;33.26;50.93;100406.75;5058529;28;66580;-43
2021/08/19 09:40:00;;;;;;;3.45;1.70;;;;;;;33.17;51.06;100390.03;5060633;28;70206;-43
2021/08/19 09:42:40;;;;;;;5.90;1.60;;;;;;;33.36;51.60;100410.44;5055851;28;66339;-42
2021/08/19 09:45:22;;;;;;;2.00;1.80;;;;;;;33.36;51.77;100394.13;5044285;28;70004;-42
2021/08/19 09:48:09;;;;;;;3.60;1.63;;;;;;;33.44;53.23;100422.00;5053633;28;66237;-43
2021/08/19 09:50:42;;;;;;;1.48;1.38;;;;;;;33.51;52.86;100422.63;5078850;27;69660;-43
2021/08/19 09:53:23;;;;;;;1.60;1.33;;;;;;;33.50;53.53;100427.25;5045883;28;66428;-43
2021/08/19 09:55:54;;;;;;;1.58;1.25;;;;;;;33.55;54.03;100426.53;5077772;27;70135;-43
2021/08/19 09:58:32;;;;;;;2.55;1.33;;;;;;;33.63;53.56;100431.56;5024503;28;66485;-43
2021/08/19 10:01:03;;;;;;;1.58;1.27;;;;;;;33.56;53.52;100425.47;5054775;28;70607;-43
2021/08/19 10:03:34;;;;;;;1.75;1.60;;;;;;;33.56;53.85;100436.34;5026231;28;66229;-43
2021/08/19 10:06:04;;;;;;;2.05;1.58;;;;;;;33.53;54.06;100431.41;5055536;28;70164;-42
2021/08/19 10:08:35;;;;;;;2.78;1.75;;;;;;;33.46;54.34;100427.97;5054340;28;65687;-43
2021/08/19 10:11:09;;;;;;;5.00;1.90;;;;;;;33.46;55.02;100426.09;5052256;28;69926;-43
2021/08/19 10:13:41;;;;;;;1.60;1.40;;;;;;;33.42;55.24;100432.28;5051761;28;65999;-42
2021/08/19 10:16:17;;;;;;;3.50;1.42;;;;;;;33.28;55.88;100413.59;5055394;28;70320;-42
2021/08/19 10:18:50;;;;;;;2.20;1.70;;;;;;;33.41;56.28;100439.63;5056852;28;67155;-43
2021/08/19 10:21:22;;;;;;;4.70;1.60;;;;;;;33.41;55.92;100439.63;5052033;28;70599;-42
2021/08/19 10:24:03;;;;;;;10.68;2.63;;;;;;;33.42;56.28;100443.16;5043408;28;65283;-42
2021/08/19 10:26:34;;;;;;;8.00;1.88;;;;;;;33.42;56.68;100435.00;5036107;28;69949;-42
2021/08/19 10:29:04;;;;;;;16.70;2.40;;;;;;;33.38;56.66;100432.78;5050755;28;65170;-43
2021/08/19 10:31:40;;;;;;;3.63;2.10;;;;;;;33.42;56.94;100440.44;5044599;28;70166;-43
2021/08/19 10:34:16;;;;;;;6.72;2.00;;;;;;;33.29;56.58;100420.69;5050508;28;66897;-43
2021/08/19 10:36:49;;;;;;;4.22;2.20;;;;;;;33.40;56.65;100448.00;5057152;28;69742;-43
2021/08/19 10:39:19;;;;;;;2.33;2.13;;;;;;;33.36;56.44;100448.50;5058736;28;66349;-43
2021/08/19 10:41:51;;;;;;;2.50;2.00;;;;;;;33.36;56.08;100459.38;5056826;28;70303;-43
2021/08/19 10:44:36;;;;;;;2.17;2.08;;;;;;;33.32;55.96;100466.41;5021818;28;65527;-44
2021/08/19 10:47:07;;;;;;;2.08;1.98;;;;;;;33.30;55.74;100476.69;5042762;28;69492;-49
2021/08/19 10:49:40;;;;;;;2.15;2.00;;;;;;;33.28;55.76;100483.44;5063241;28;66383;-42
2021/08/19 10:52:13;;;;;;;2.13;2.03;;;;;;;33.30;55.66;100493.00;5041125;28;69649;-43
2021/08/19 10:54:50;;;;;;;3.03;1.73;;;;;;;33.30;55.69;100498.44;5051977;28;66104;-42
2021/08/19 10:57:32;;;;;;;3.97;2.65;;;;;;;33.27;55.89;100507.09;5034909;28;70491;-43
2021/08/19 11:00:11;;;;;;;2.38;2.17;;;;;;;33.26;55.54;100512.75;5052998;28;66552;-43
2021/08/19 11:02:41;;;;;;;3.80;3.55;;;;;;;33.22;56.01;100517.06;5054817;28;69088;-43
2021/08/19 11:05:26;;;;;;;4.55;3.25;;;;;;;33.30;55.70;100527.53;5058867;28;65482;-42
2021/08/19 11:08:01;;;;;;;3.00;2.80;;;;;;;33.31;55.82;100537.31;5056588;28;70199;-42
2021/08/19 11:10:37;;;;;;;2.72;2.53;;;;;;;33.36;55.59;100546.38;5054645;28;65995;-43
2021/08/19 11:13:09;;;;;;;3.60;3.30;;;;;;;33.38;55.60;100555.13;5058059;28;70146;-43
2021/08/19 11:15:49;;;;;;;3.17;2.97;;;;;;;33.27;55.76;100520.69;5057717;28;66295;-48
2021/08/19 11:18:32;;;;;;;2.90;2.70;;;;;;;33.31;55.88;100527.25;5053831;28;70453;-42
2021/08/19 11:21:05;;;;;;;3.70;3.50;;;;;;;33.49;56.29;100555.28;5059845;28;66273;-42
2021/08/19 11:23:40;;;;;;;3.78;3.58;;;;;;;33.50;55.99;100567.81;5057066;28;70343;-42
2021/08/19 11:26:20;;;;;;;3.45;3.25;;;;;;;33.53;56.02;100610.88;5058253;28;66263;-44
2021/08/19 11:28:51;;;;;;;5.95;2.97;;;;;;;33.49;56.83;100626.84;5059746;28;68872;-40
2021/08/19 11:31:24;;;;;;;4.38;3.22;;;;;;;33.34;56.69;100630.06;5068986;27;65718;-41
2021/08/19 11:33:58;;;;;;;3.75;3.13;;;;;;;33.40;57.36;100638.34;5047208;28;69953;-41
2021/08/19 11:36:29;;;;;;;4.07;3.30;;;;;;;33.28;57.44;100620.19;5056170;28;66029;-42
2021/08/19 11:39:04;;;;;;;3.70;3.40;;;;;;;33.13;58.01;100603.59;5039549;28;69516;-41
2021/08/19 11:41:35;;;;;;;4.18;3.88;;;;;;;33.23;58.45;100633.66;5057797;28;66705;-42
2021/08/19 11:44:08;;;;;;;3.90;3.60;;;;;;;33.19;59.01;100640.66;5057259;28;70283;-42
2021/08/19 11:46:38;;;;;;;4.22;3.90;;;;;;;33.13;59.31;100649.78;5054579;28;66622;-42
2021/08/19 11:49:14;;;;;;;4.05;3.60;;;;;;;32.98;59.92;100631.25;5056969;28;70068;-43
2021/08/19 11:51:45;;;;;;;5.05;3.20;;;;;;;33.07;59.74;100653.44;5058685;28;66282;-43
2021/08/19 11:54:16;;;;;;;3.10;2.90;;;;;;;33.04;60.01;100671.09;5057954;28;69916;-42
2021/08/19 11:56:47;;;;;;;3.00;2.38;;;;;;;33.04;60.10;100690.13;5057069;28;66253;-43
2021/08/19 11:59:18;;;;;;;1.98;1.88;;;;;;;33.01;59.84;100700.63;5036232;28;70137;-41